Time;durP1;ratioP1;P1;durP2;ratioP2;P2;SDS_P1;SDS_P2;PMS_P1;PMS_P2;Temp;Humidity;BMP_temperature;BMP_pressure;BME280_temperature;BME280_humidity;BME280_pressure;Samples;Min_cycle;Max_cycle;Signal;HPM_P1;HPM_P2
2022/08/28 00:01:53;;;;;;;20.17;5.07;;;;;;;16.19;86.10;101748.53;5044638;28;20044;-70
2022/08/28 00:04:19;;;;;;;20.35;5.60;;;;;;;16.17;86.54;101744.06;5043777;28;20025;-71
2022/08/28 00:06:44;;;;;;;18.38;5.03;;;;;;;16.03;87.43;101747.69;5043341;28;20033;-70
2022/08/28 00:09:11;;;;;;;21.25;5.55;;;;;;;15.99;88.18;101745.06;5044649;28;20056;-70
2022/08/28 00:11:37;;;;;;;19.77;5.18;;;;;;;15.94;89.24;101745.03;5042425;28;20029;-70
2022/08/28 00:14:05;;;;;;;19.83;5.40;;;;;;;15.99;89.45;101750.38;5045369;28;20025;-70
2022/08/28 00:16:30;;;;;;;19.13;5.32;;;;;;;15.96;89.88;101751.28;5038083;28;20033;-69
2022/08/28 00:18:56;;;;;;;18.58;5.18;;;;;;;15.95;90.21;101753.94;5045118;28;20452;-70
2022/08/28 00:21:22;;;;;;;21.60;5.40;;;;;;;15.83;91.60;101749.56;5043085;28;20025;-71
2022/08/28 00:23:47;;;;;;;19.55;5.20;;;;;;;15.83;92.87;101746.88;5043373;28;20092;-69
2022/08/28 00:27:51;;;;;;;22.23;5.50;;;;;;;15.79;92.84;101754.00;5044251;28;20025;-61
2022/08/28 00:29:02;;;;;;;20.80;5.60;;;;;;;15.68;93.34;101748.66;5037868;28;20120;-61
2022/08/28 00:31:28;;;;;;;18.70;5.22;;;;;;;15.67;93.88;101738.00;5044755;28;20484;-62
2022/08/28 00:33:53;;;;;;;21.38;5.95;;;;;;;15.61;95.12;101754.00;5042692;28;20031;-62
2022/08/28 00:36:18;;;;;;;20.50;5.65;;;;;;;15.53;96.95;101751.34;5043271;28;20029;-64
2022/08/28 00:38:44;;;;;;;20.67;5.45;;;;;;;15.50;98.09;101756.69;5043554;28;20491;-62
2022/08/28 00:41:09;;;;;;;21.80;5.70;;;;;;;15.44;98.55;101751.38;5042210;28;20108;-63
2022/08/28 00:43:42;;;;;;;19.88;5.60;;;;;;;15.28;99.67;101756.72;5044950;28;20017;-64
2022/08/28 00:46:13;;;;;;;21.08;5.82;;;;;;;15.22;100.00;101756.72;5041374;28;20184;-63
2022/08/28 00:48:38;;;;;;;20.25;5.60;;;;;;;15.18;100.00;101760.28;5044560;28;20426;-60
2022/08/28 00:53:50;;;;;;;19.85;5.55;;;;;;;15.00;100.00;101755.84;5041797;28;20084;-63
2022/08/28 00:56:17;;;;;;;19.85;6.00;;;;;;;15.00;100.00;101753.19;5043035;28;20028;-62
2022/08/28 00:58:45;;;;;;;21.48;5.90;;;;;;;14.99;100.00;101760.25;5042182;28;20188;-62
2022/08/28 01:01:12;;;;;;;21.17;5.68;;;;;;;14.94;100.00;101759.38;5043880;28;20072;-62
2022/08/28 01:03:37;;;;;;;20.13;5.65;;;;;;;14.91;100.00;101764.72;5039828;28;20022;-64
2022/08/28 01:06:04;;;;;;;22.17;5.88;;;;;;;14.91;100.00;101771.78;5044449;28;20368;-63
2022/08/28 01:08:30;;;;;;;21.17;5.88;;;;;;;14.88;100.00;101770.03;5041161;28;20083;-64
2022/08/28 01:10:58;;;;;;;19.67;5.70;;;;;;;14.77;100.00;101769.13;5043559;28;20523;-61
2022/08/28 01:13:25;;;;;;;19.23;5.75;;;;;;;14.74;100.00;101775.31;5041752;28;20087;-60
2022/08/28 01:15:52;;;;;;;18.27;5.50;;;;;;;14.64;100.00;101778.84;5043265;28;20104;-63
2022/08/28 01:18:18;;;;;;;21.45;5.95;;;;;;;14.63;100.00;101777.97;5042462;28;20531;-61
2022/08/28 01:21:29;;;;;;;22.35;5.97;;;;;;;14.59;100.00;101769.91;5041846;28;20412;-62
2022/08/28 01:23:57;;;;;;;21.48;5.80;;;;;;;14.50;100.00;101772.56;5020716;28;20034;-61
2022/08/28 01:26:24;;;;;;;22.17;6.03;;;;;;;14.42;100.00;101776.09;5019935;28;20029;-60
2022/08/28 01:28:50;;;;;;;20.92;5.78;;;;;;;14.38;100.00;101771.63;5020650;28;20042;-61
2022/08/28 01:31:16;;;;;;;20.13;6.05;;;;;;;14.35;100.00;101773.41;5020674;28;20451;-62
2022/08/28 01:33:43;;;;;;;21.05;6.15;;;;;;;14.33;100.00;101776.06;5019681;28;20037;-62
2022/08/28 01:36:11;;;;;;;22.27;5.97;;;;;;;14.28;100.00;101780.47;5021765;28;20038;-61
2022/08/28 01:38:37;;;;;;;20.92;5.90;;;;;;;14.25;100.00;101778.69;5018671;28;20056;-64
2022/08/28 01:41:03;;;;;;;21.60;6.03;;;;;;;14.34;100.00;101784.94;5022078;28;20080;-64
2022/08/28 01:43:30;;;;;;;21.55;5.80;;;;;;;14.29;100.00;101776.94;5019261;28;20026;-62
2022/08/28 01:46:00;;;;;;;20.45;5.95;;;;;;;14.29;100.00;101776.94;5021314;28;20030;-63
2022/08/28 01:48:27;;;;;;;20.45;5.90;;;;;;;14.36;100.00;101784.06;5019235;28;20042;-61
2022/08/28 01:50:54;;;;;;;19.02;5.53;;;;;;;14.27;100.00;101784.00;5021037;28;20041;-61
2022/08/28 01:53:23;;;;;;;21.10;5.90;;;;;;;14.28;100.00;101791.09;5019908;28;20540;-64
2022/08/28 01:55:51;;;;;;;20.45;5.80;;;;;;;14.24;100.00;101790.22;5040954;28;20030;-63
2022/08/28 01:58:17;;;;;;;21.48;5.75;;;;;;;14.28;100.00;101788.44;5045368;28;20499;-61
2022/08/28 02:00:43;;;;;;;22.30;6.15;;;;;;;14.19;100.00;101785.75;5045494;28;20030;-63
2022/08/28 02:03:08;;;;;;;21.60;6.07;;;;;;;14.16;100.00;101797.28;5047741;28;20027;-63
2022/08/28 02:05:34;;;;;;;20.63;5.90;;;;;;;14.09;100.00;101792.81;5044385;28;20036;-66
2022/08/28 02:08:03;;;;;;;18.50;5.68;;;;;;;13.96;100.00;101783.88;5048091;28;20151;-66
2022/08/28 02:10:31;;;;;;;20.75;5.80;;;;;;;13.99;100.00;101789.19;5044521;28;20365;-63
2022/08/28 02:12:57;;;;;;;20.10;5.53;;;;;;;14.03;100.00;101795.44;5046844;28;20029;-63
2022/08/28 02:15:25;;;;;;;20.27;6.05;;;;;;;13.92;100.00;101792.69;5044176;28;20048;-62
2022/08/28 02:17:51;;;;;;;20.77;5.80;;;;;;;13.80;100.00;101797.97;5044943;28;20463;-66
2022/08/28 02:20:17;;;;;;;19.75;5.72;;;;;;;13.73;100.00;101807.66;5046354;28;20108;-63
2022/08/28 02:22:44;;;;;;;19.98;6.05;;;;;;;13.59;100.00;101797.81;5045297;28;20025;-64
2022/08/28 02:25:10;;;;;;;20.60;5.95;;;;;;;13.55;100.00;101798.69;5046971;28;20074;-65
2022/08/28 02:27:37;;;;;;;20.98;6.00;;;;;;;13.59;100.00;101797.81;5044025;28;20026;-63
2022/08/28 02:30:05;;;;;;;20.75;6.03;;;;;;;13.49;100.00;101800.41;5039951;28;20036;-61
2022/08/28 02:32:31;;;;;;;19.50;5.88;;;;;;;13.38;100.00;101800.31;5047281;28;20048;-65
2022/08/28 02:34:56;;;;;;;20.83;5.95;;;;;;;13.34;100.00;101798.47;5044636;28;20045;-60
2022/08/28 02:37:23;;;;;;;21.88;6.15;;;;;;;13.25;100.00;101797.53;5046145;28;20038;-66
2022/08/28 02:39:50;;;;;;;20.63;6.05;;;;;;;13.16;100.00;101796.56;5045538;28;20016;-66
2022/08/28 02:42:15;;;;;;;20.73;6.38;;;;;;;13.02;100.00;101812.38;5044784;28;20041;-63
2022/08/28 02:44:41;;;;;;;19.85;6.05;;;;;;;13.01;100.00;101806.16;5046507;28;20097;-65
2022/08/28 02:47:07;;;;;;;20.63;6.13;;;;;;;13.07;100.00;101808.00;5042213;28;20524;-67
2022/08/28 02:49:33;;;;;;;20.85;6.10;;;;;;;13.02;100.00;101802.66;5047243;28;20118;-68
2022/08/28 02:51:58;;;;;;;20.25;6.00;;;;;;;13.02;100.00;101812.38;5043958;28;20148;-69
2022/08/28 02:54:25;;;;;;;20.50;5.97;;;;;;;12.90;100.00;101803.41;5045766;28;20029;-69
2022/08/28 02:56:51;;;;;;;20.13;6.28;;;;;;;12.82;100.00;101805.09;5043883;28;20036;-68
2022/08/28 02:59:16;;;;;;;22.02;6.40;;;;;;;12.78;100.00;101808.59;5044782;28;20033;-68
2022/08/28 03:01:41;;;;;;;18.77;6.10;;;;;;;12.68;100.00;101799.66;5046059;28;20025;-68
2022/08/28 03:04:07;;;;;;;19.90;6.18;;;;;;;12.69;100.00;101803.19;5043489;28;20381;-67
2022/08/28 03:06:32;;;;;;;18.80;5.93;;;;;;;12.68;100.00;101806.72;5046589;28;20032;-69
2022/08/28 03:08:58;;;;;;;21.95;6.30;;;;;;;12.67;100.00;101804.94;5041920;28;20037;-69
2022/08/28 03:11:24;;;;;;;20.92;5.80;;;;;;;12.63;100.00;101797.81;5045834;28;20083;-70
2022/08/28 03:13:49;;;;;;;18.83;6.00;;;;;;;12.60;100.00;101803.09;5044519;28;20727;-68
2022/08/28 03:16:15;;;;;;;21.63;6.22;;;;;;;12.54;100.00;101801.25;5044319;28;20025;-68
2022/08/28 03:18:40;;;;;;;19.90;6.05;;;;;;;12.49;100.00;101806.50;5046303;28;20060;-69
2022/08/28 03:21:06;;;;;;;20.48;6.38;;;;;;;12.50;100.00;101812.72;5042967;28;20384;-68
2022/08/28 03:23:32;;;;;;;21.50;6.40;;;;;;;12.47;100.00;101808.25;5038894;28;20033;-69
2022/08/28 03:26:01;;;;;;;21.27;6.30;;;;;;;12.38;100.00;101813.44;5045708;28;20571;-68
2022/08/28 03:28:32;;;;;;;20.02;5.93;;;;;;;12.49;100.00;101814.44;5043419;28;20056;-68
2022/08/28 03:30:57;;;;;;;20.45;6.35;;;;;;;12.43;100.00;101819.69;5045597;28;20033;-69
2022/08/28 03:33:23;;;;;;;21.63;6.43;;;;;;;12.37;100.00;101814.31;5044169;28;20021;-61
2022/08/28 03:35:49;;;;;;;20.95;6.57;;;;;;;12.41;100.00;101824.09;5044261;28;20014;-62
2022/08/28 03:38:15;;;;;;;20.52;6.45;;;;;;;12.34;100.00;101817.81;5045214;28;20021;-60
2022/08/28 03:40:42;;;;;;;20.58;6.25;;;;;;;12.28;100.00;101817.75;5043240;28;20472;-60
2022/08/28 03:43:13;;;;;;;21.35;6.20;;;;;;;12.27;100.00;101826.56;5045687;28;20490;-64
2022/08/28 03:45:39;;;;;;;18.42;5.82;;;;;;;12.25;100.00;101827.44;5042689;28;20109;-64
2022/08/28 03:48:06;;;;;;;18.85;5.97;;;;;;;12.21;100.00;101826.47;5046023;28;20024;-63
2022/08/28 03:50:31;;;;;;;21.38;6.55;;;;;;;12.24;100.00;101825.63;5042616;28;20057;-63
2022/08/28 03:52:58;;;;;;;20.73;6.22;;;;;;;12.15;100.00;101821.97;5045030;28;20524;-64
2022/08/28 03:55:23;;;;;;;20.77;6.38;;;;;;;12.11;100.00;101829.88;5043593;28;20472;-61
2022/08/28 03:57:49;;;;;;;20.20;6.60;;;;;;;12.07;100.00;101828.06;5043857;28;20032;-60
2022/08/28 04:00:15;;;;;;;20.92;6.47;;;;;;;11.99;100.00;101830.59;5044516;28;20028;-60
2022/08/28 04:02:41;;;;;;;19.67;6.53;;;;;;;11.91;100.00;101827.81;5042949;28;20079;-64
2022/08/28 04:05:08;;;;;;;19.75;6.45;;;;;;;11.82;100.00;101825.94;5045673;28;20022;-61
2022/08/28 04:07:34;;;;;;;20.25;6.50;;;;;;;11.77;100.00;101821.44;5038101;28;20037;-60
2022/08/28 04:10:00;;;;;;;20.45;6.57;;;;;;;11.73;100.00;101828.41;5045268;28;20072;-62
2022/08/28 04:12:25;;;;;;;19.55;6.07;;;;;;;11.64;100.00;101836.22;5042840;28;20079;-62
2022/08/28 04:14:50;;;;;;;19.52;6.35;;;;;;;11.62;100.00;101830.00;5043565;28;20053;-61
2022/08/28 04:17:16;;;;;;;19.08;6.13;;;;;;;11.56;100.00;101829.91;5044457;28;20380;-62
2022/08/28 04:19:42;;;;;;;21.45;6.30;;;;;;;11.53;100.00;101825.44;5041397;28;20025;-61
2022/08/28 04:22:08;;;;;;;19.73;6.45;;;;;;;11.53;100.00;101820.16;5045458;28;20118;-61
2022/08/28 04:24:33;;;;;;;20.52;6.57;;;;;;;11.48;100.00;101833.31;5037827;28;20050;-61
2022/08/28 04:26:58;;;;;;;18.83;6.43;;;;;;;11.43;100.00;101829.72;5044509;28;20151;-62
2022/08/28 04:29:24;;;;;;;21.35;6.35;;;;;;;11.43;100.00;101832.38;5042907;28;20052;-61
2022/08/28 04:31:49;;;;;;;18.88;6.55;;;;;;;11.37;100.00;101834.91;5043405;28;20035;-60
2022/08/28 04:34:14;;;;;;;20.67;6.75;;;;;;;11.40;100.00;101844.66;5044044;28;20464;-65
2022/08/28 04:36:40;;;;;;;20.92;6.82;;;;;;;11.35;100.00;101844.59;5042356;28;20124;-65
2022/08/28 04:39:07;;;;;;;20.80;6.85;;;;;;;11.40;100.00;101844.66;5045111;28;20021;-61
2022/08/28 04:41:33;;;;;;;19.55;6.43;;;;;;;11.40;100.00;101844.66;5041554;28;20073;-61
2022/08/28 04:43:58;;;;;;;19.92;6.47;;;;;;;11.43;100.00;101845.63;5044457;28;20033;-62
2022/08/28 04:46:24;;;;;;;21.30;6.70;;;;;;;11.47;100.00;101846.53;5042385;28;20464;-61
2022/08/28 04:48:50;;;;;;;20.77;6.82;;;;;;;11.50;100.00;101847.50;5042977;28;20038;-62
2022/08/28 04:51:15;;;;;;;19.90;6.57;;;;;;;11.54;100.00;101852.84;5043894;28;20108;-70
2022/08/28 04:53:41;;;;;;;19.67;6.43;;;;;;;11.51;100.00;101849.25;5041438;28;20058;-70
2022/08/28 04:56:11;;;;;;;20.27;6.63;;;;;;;11.44;100.00;101855.31;5044703;28;20025;-70
2022/08/28 04:58:37;;;;;;;19.75;6.45;;;;;;;11.41;100.00;101847.31;5037722;28;20049;-71
2022/08/28 05:01:18;;;;;;;21.10;6.55;;;;;;;11.47;100.00;101850.06;5037177;28;20468;-70
2022/08/28 05:03:45;;;;;;;19.63;6.55;;;;;;;11.42;100.00;101848.25;5039124;28;20060;-70
2022/08/28 05:06:13;;;;;;;19.88;6.47;;;;;;;11.47;100.00;101855.38;5044084;28;20503;-69
2022/08/28 05:08:39;;;;;;;19.35;6.50;;;;;;;11.51;100.00;101854.56;5041153;28;20029;-68
2022/08/28 05:11:20;;;;;;;20.95;6.32;;;;;;;11.51;100.00;101861.63;5044661;28;20090;-69
2022/08/28 05:13:47;;;;;;;20.30;6.47;;;;;;;11.55;100.00;101871.41;5039574;28;20029;-69
2022/08/28 05:16:13;;;;;;;20.55;6.72;;;;;;;11.56;100.00;101874.94;5043858;28;20021;-69
2022/08/28 05:18:38;;;;;;;20.77;6.65;;;;;;;11.54;100.00;101874.91;5040777;28;20079;-69
2022/08/28 05:21:09;;;;;;;23.60;6.72;;;;;;;11.56;100.00;101869.63;5044487;28;20028;-70
2022/08/28 05:23:34;;;;;;;23.17;6.60;;;;;;;11.52;100.00;101871.34;5037418;28;20358;-70
2022/08/28 05:26:00;;;;;;;21.17;6.55;;;;;;;11.49;100.00;101882.78;5043627;28;20103;-70
2022/08/28 05:28:25;;;;;;;20.42;7.00;;;;;;;11.51;100.00;101877.50;5041702;28;20031;-69
2022/08/28 05:30:51;;;;;;;22.60;7.45;;;;;;;11.54;100.00;101879.31;5042487;28;20134;-69
2022/08/28 05:33:18;;;;;;;22.85;7.10;;;;;;;11.62;100.00;101888.28;5042803;28;20105;-70
2022/08/28 05:35:45;;;;;;;23.00;7.10;;;;;;;11.71;100.00;101888.44;5041429;28;20477;-70
2022/08/28 05:38:12;;;;;;;25.20;7.88;;;;;;;11.76;100.00;101885.84;5043900;28;20032;-69
2022/08/28 05:40:48;;;;;;;26.85;7.38;;;;;;;11.82;100.00;101889.50;5040966;28;20025;-70
2022/08/28 05:43:16;;;;;;;23.90;7.32;;;;;;;11.87;100.00;101889.56;5038723;28;20423;-67
2022/08/28 05:45:41;;;;;;;23.63;7.68;;;;;;;11.89;100.00;101892.25;5043761;28;20021;-67
2022/08/28 05:48:08;;;;;;;25.00;7.50;;;;;;;11.92;100.00;101887.00;5040666;28;20048;-67
2022/08/28 05:50:36;;;;;;;22.35;7.25;;;;;;;12.00;100.00;101893.34;5044108;28;20033;-67
2022/08/28 05:53:01;;;;;;;21.23;7.20;;;;;;;12.03;100.00;101886.31;5040792;28;20041;-67
2022/08/28 05:55:26;;;;;;;23.38;7.72;;;;;;;12.09;100.00;101884.63;5043346;28;20021;-67
2022/08/28 05:57:51;;;;;;;21.88;7.35;;;;;;;12.13;100.00;101887.34;5042019;28;20387;-67
2022/08/28 06:00:17;;;;;;;22.42;7.60;;;;;;;12.16;100.00;101886.50;5041608;28;20033;-67
2022/08/28 06:02:43;;;;;;;23.20;7.55;;;;;;;12.20;100.00;101889.22;5043575;28;20021;-67
2022/08/28 06:05:09;;;;;;;22.55;8.13;;;;;;;12.32;100.00;101887.59;5040528;28;20408;-67
2022/08/28 06:07:34;;;;;;;23.48;8.48;;;;;;;12.47;100.00;101897.53;5043910;28;20021;-68
2022/08/28 06:10:00;;;;;;;22.52;7.85;;;;;;;12.49;100.00;101901.97;5040819;28;20040;-68
2022/08/28 06:12:25;;;;;;;23.23;7.95;;;;;;;12.61;100.00;101901.25;5041513;28;20052;-67
2022/08/28 06:14:51;;;;;;;22.45;8.25;;;;;;;12.72;100.00;101912.00;5042132;28;20028;-68
2022/08/28 06:17:17;;;;;;;23.50;8.45;;;;;;;12.82;100.00;101913.00;5041315;28;20471;-67
2022/08/28 06:19:42;;;;;;;23.45;8.30;;;;;;;12.88;100.00;101907.75;5043125;28;20063;-68
2022/08/28 06:22:10;;;;;;;22.20;8.20;;;;;;;12.95;100.00;101903.44;5040527;28;20029;-67
2022/08/28 06:24:36;;;;;;;22.63;7.97;;;;;;;13.02;100.00;101905.28;5036733;28;20029;-70
2022/08/28 06:27:01;;;;;;;23.45;8.20;;;;;;;13.08;100.00;101911.53;5042924;28;20100;-70
2022/08/28 06:29:28;;;;;;;25.33;8.00;;;;;;;13.12;100.00;101915.13;5029445;28;20383;-79
2022/08/28 06:31:59;;;;;;;22.70;8.10;;;;;;;13.20;100.00;101912.53;5030028;28;20033;-82
2022/08/28 06:34:26;;;;;;;23.85;8.40;;;;;;;13.28;100.00;101907.28;5033219;28;20496;-81
2022/08/28 06:36:52;;;;;;;22.88;7.65;;;;;;;13.32;100.00;101911.78;5033121;28;20013;-74
2022/08/28 06:39:18;;;;;;;23.08;7.25;;;;;;;13.38;100.00;101917.16;5032561;28;20112;-76
2022/08/28 06:41:43;;;;;;;21.58;7.07;;;;;;;13.46;100.00;101915.47;5033340;28;20124;-74
2022/08/28 06:44:11;;;;;;;20.83;7.35;;;;;;;13.54;100.00;101931.47;5032345;28;20420;-74
2022/08/28 06:46:36;;;;;;;23.15;7.03;;;;;;;13.62;100.00;101928.91;5035371;28;20029;-74
2022/08/28 06:49:04;;;;;;;22.90;7.43;;;;;;;13.72;100.00;101928.13;5036388;28;20024;-70
2022/08/28 06:51:29;;;;;;;21.10;6.50;;;;;;;13.77;100.00;101926.38;5036274;28;20033;-75
2022/08/28 06:53:56;;;;;;;20.05;6.30;;;;;;;13.83;100.00;101926.41;5036202;28;20493;-73
2022/08/28 06:56:21;;;;;;;21.42;6.57;;;;;;;13.90;100.00;101925.59;5037598;28;20071;-73
2022/08/28 06:58:48;;;;;;;20.08;6.07;;;;;;;13.98;100.00;101927.41;5037642;28;20026;-71
2022/08/28 07:01:21;;;;;;;23.05;6.50;;;;;;;14.04;100.00;101932.81;5033304;28;20017;-70
2022/08/28 07:03:47;;;;;;;22.30;6.30;;;;;;;14.12;100.00;101931.97;5036494;28;20025;-78
2022/08/28 07:06:13;;;;;;;20.33;5.68;;;;;;;14.22;100.00;101927.59;5034864;28;20026;-69
2022/08/28 07:08:39;;;;;;;20.90;5.65;;;;;;;14.35;100.00;101923.25;5035234;28;20036;-72
2022/08/28 07:11:22;;;;;;;19.67;5.82;;;;;;;14.46;100.00;101933.97;5038706;28;20079;-79
2022/08/28 07:13:47;;;;;;;22.27;5.90;;;;;;;14.53;100.00;101927.75;5034452;28;20021;-69
2022/08/28 07:16:16;;;;;;;20.80;6.00;;;;;;;14.65;100.00;101929.66;5035796;28;20029;-70
2022/08/28 07:18:41;;;;;;;20.25;5.60;;;;;;;14.74;100.00;101928.81;5037973;28;20025;-65
2022/08/28 07:21:07;;;;;;;20.77;5.20;;;;;;;14.82;100.00;101935.94;5033585;28;20025;-68
2022/08/28 07:23:34;;;;;;;22.02;5.55;;;;;;;14.90;100.00;101930.63;5037320;28;20099;-70
2022/08/28 07:26:06;;;;;;;19.45;5.05;;;;;;;15.01;100.00;101932.44;5033703;28;20055;-68
2022/08/28 07:28:33;;;;;;;19.13;5.28;;;;;;;15.09;100.00;101941.34;5036856;28;20042;-71
2022/08/28 07:31:02;;;;;;;22.13;5.65;;;;;;;15.13;100.00;101936.03;5033484;28;20087;-74
2022/08/28 07:33:28;;;;;;;20.83;4.90;;;;;;;15.21;100.00;101940.50;5035455;28;20104;-72
2022/08/28 07:35:55;;;;;;;19.75;5.10;;;;;;;15.27;100.00;101941.38;5034391;28;20112;-67
2022/08/28 07:38:21;;;;;;;18.20;4.57;;;;;;;15.33;100.00;101945.84;5036519;28;20026;-64
2022/08/28 07:40:47;;;;;;;19.98;4.53;;;;;;;15.45;100.00;101951.19;5034123;28;20037;-65
2022/08/28 07:46:01;;;;;;;19.23;4.32;;;;;;;15.65;100.00;101951.22;5033838;28;20040;-64
2022/08/28 07:48:27;;;;;;;17.90;4.20;;;;;;;15.80;100.00;101952.13;5031454;28;20025;-69
2022/08/28 07:50:53;;;;;;;19.13;4.20;;;;;;;15.91;100.00;101949.47;5032860;28;20075;-65
2022/08/28 07:53:19;;;;;;;20.10;4.32;;;;;;;15.99;100.00;101948.59;5036805;28;20045;-69
2022/08/28 07:55:44;;;;;;;20.33;4.20;;;;;;;16.10;100.00;101950.34;5033580;28;20039;-69
2022/08/28 07:58:10;;;;;;;17.17;3.80;;;;;;;16.23;100.00;101952.09;5036007;28;20469;-69
2022/08/28 08:00:36;;;;;;;19.65;4.00;;;;;;;16.64;100.00;101952.91;5033285;28;20538;-69
2022/08/28 08:03:01;;;;;;;18.45;3.90;;;;;;;16.93;100.00;101958.16;5036622;28;20025;-69
2022/08/28 08:05:26;;;;;;;17.73;3.80;;;;;;;17.14;100.00;101956.28;5041837;28;20025;-69
2022/08/28 08:07:51;;;;;;;16.60;3.50;;;;;;;17.30;100.00;101970.44;5043065;28;20029;-69
2022/08/28 08:10:17;;;;;;;19.33;3.60;;;;;;;17.32;100.00;101964.19;5045307;28;20127;-69
2022/08/28 08:12:43;;;;;;;17.40;3.55;;;;;;;17.48;100.00;101959.63;5041704;28;20064;-69
2022/08/28 08:15:10;;;;;;;17.67;3.42;;;;;;;17.66;100.00;101963.97;5045007;28;20043;-69
2022/08/28 08:17:36;;;;;;;18.02;3.60;;;;;;;18.17;100.00;101968.91;5042581;28;20074;-66
2022/08/28 08:20:03;;;;;;;16.48;3.28;;;;;;;18.58;100.00;101972.97;5044082;28;20025;-65
2022/08/28 08:22:28;;;;;;;17.48;3.47;;;;;;;18.81;100.00;101963.75;5043389;28;20108;-66
2022/08/28 08:24:54;;;;;;;16.85;3.20;;;;;;;18.87;100.00;101969.06;5042772;28;20547;-67
2022/08/28 08:27:19;;;;;;;15.10;3.03;;;;;;;18.90;100.00;101965.47;5044821;28;20025;-66
2022/08/28 08:29:45;;;;;;;16.63;3.47;;;;;;;19.11;100.00;101973.22;5041471;28;20021;-66
2022/08/28 08:32:11;;;;;;;16.83;3.20;;;;;;;19.41;98.45;101975.50;5045390;28;20021;-65
2022/08/28 08:34:41;;;;;;;15.80;2.90;;;;;;;19.63;97.51;101981.41;5042305;28;20095;-66
2022/08/28 08:37:07;;;;;;;19.40;3.40;;;;;;;19.78;94.54;101974.94;5044416;28;20032;-67
2022/08/28 08:39:34;;;;;;;15.60;3.13;;;;;;;19.81;93.76;101978.50;5042553;28;20055;-65
2022/08/28 08:42:03;;;;;;;15.82;3.30;;;;;;;19.64;95.31;101977.84;5043326;28;20025;-65
2022/08/28 08:44:33;;;;;;;16.05;3.20;;;;;;;19.81;95.60;101978.50;5043331;28;20045;-66
2022/08/28 08:47:32;;;;;;;16.20;3.03;;;;;;;20.50;93.42;101973.72;5043404;28;20075;-63
2022/08/28 08:50:03;;;;;;;14.32;2.90;;;;;;;21.00;87.15;101975.41;5041110;28;20473;-66
2022/08/28 08:52:36;;;;;;;12.93;2.90;;;;;;;20.60;87.08;101976.19;5042804;28;20064;-66
2022/08/28 08:55:17;;;;;;;14.93;3.30;;;;;;;20.60;90.83;101965.47;5043801;28;20022;-67
2022/08/28 08:57:44;;;;;;;14.48;2.95;;;;;;;20.23;87.09;101967.03;5040914;28;20036;-66
2022/08/28 09:00:11;;;;;;;15.32;3.20;;;;;;;19.75;89.28;101966.97;5041391;28;20025;-66
2022/08/28 09:02:42;;;;;;;13.98;2.88;;;;;;;19.38;90.26;101976.44;5043931;28;20035;-66
2022/08/28 09:05:12;;;;;;;14.55;2.80;;;;;;;19.34;90.46;101970.25;5041292;28;20080;-66
2022/08/28 09:07:55;;;;;;;17.75;3.15;;;;;;;19.75;89.12;101970.50;5041476;28;20029;-65
2022/08/28 09:10:22;;;;;;;13.05;2.60;;;;;;;20.44;85.07;101972.94;5039081;28;20040;-65
2022/08/28 09:12:53;;;;;;;14.63;3.00;;;;;;;21.15;82.61;101974.19;5035055;28;20038;-64
2022/08/28 09:15:21;;;;;;;10.35;2.70;;;;;;;20.93;81.46;101974.66;5040532;28;20043;-70
2022/08/28 09:18:14;;;;;;;14.10;3.00;;;;;;;20.24;83.30;101973.28;5040756;28;20461;-70
2022/08/28 09:20:41;;;;;;;16.02;3.00;;;;;;;20.66;81.50;101970.69;5018698;28;20239;-70
2022/08/28 09:23:06;;;;;;;15.43;2.90;;;;;;;20.81;82.12;101966.84;5021823;28;20164;-71
2022/08/28 09:25:49;;;;;;;14.60;2.80;;;;;;;20.90;83.69;101972.91;5020185;28;20037;-71
2022/08/28 09:28:30;;;;;;;11.93;2.80;;;;;;;20.66;83.21;101976.06;5019093;28;20060;-70
2022/08/28 09:30:57;;;;;;;13.07;2.80;;;;;;;20.42;83.59;101978.31;5020207;28;20033;-70
2022/08/28 09:33:44;;;;;;;12.20;2.70;;;;;;;20.23;84.47;101976.88;5019948;28;20029;-64
2022/08/28 09:36:27;;;;;;;14.65;2.88;;;;;;;20.06;85.75;101964.66;5019047;28;20033;-65
2022/08/28 09:39:06;;;;;;;15.57;3.00;;;;;;;20.40;85.10;101976.56;5019073;28;20126;-64
2022/08/28 09:44:21;;;;;;;12.95;2.70;;;;;;;21.31;78.33;101970.25;5019374;28;20475;-64
2022/08/28 09:46:49;;;;;;;13.43;2.90;;;;;;;21.48;78.19;101977.94;5020309;28;20026;-62
2022/08/28 09:49:22;;;;;;;13.27;2.80;;;;;;;21.80;77.54;101973.59;5020025;28;20022;-67
2022/08/28 09:51:49;;;;;;;13.20;2.67;;;;;;;22.18;75.77;101979.81;5019797;28;20052;-63
2022/08/28 09:54:24;;;;;;;13.70;2.83;;;;;;;22.37;72.27;101968.59;5019777;28;20088;-64
2022/08/28 09:56:50;;;;;;;12.25;2.60;;;;;;;23.51;69.82;101976.00;5022186;28;20456;-64
2022/08/28 09:59:22;;;;;;;14.52;2.88;;;;;;;25.18;47.61;101970.16;5041974;28;20028;-66
2022/08/28 10:02:09;;;;;;;13.88;2.60;;;;;;;26.32;45.54;101965.44;5042119;28;20025;-63
2022/08/28 10:05:01;;;;;;;14.77;3.00;;;;;;;27.68;39.73;101969.09;5036701;28;20432;-64
2022/08/28 10:07:34;;;;;;;15.80;2.78;;;;;;;28.50;35.66;101974.81;5001226;28;20049;-63
2022/08/28 10:10:19;;;;;;;9.55;2.50;;;;;;;29.06;34.78;101976.38;4998812;28;20037;-67
2022/08/28 10:13:01;;;;;;;14.93;2.85;;;;;;;29.68;35.72;101977.34;4999776;28;20478;-62
2022/08/28 10:15:45;;;;;;;10.30;2.75;;;;;;;29.45;34.44;101981.41;4999016;28;20101;-67
2022/08/28 10:18:45;;;;;;;11.27;3.00;;;;;;;28.14;37.05;101975.78;4998286;28;20076;-66
2022/08/28 10:21:31;;;;;;;10.95;2.72;;;;;;;26.49;38.02;101980.97;4906912;29;20056;-64
2022/08/28 10:24:12;;;;;;;14.30;3.10;;;;;;;25.23;41.29;101969.00;4906780;29;20032;-64
2022/08/28 10:27:14;;;;;;;12.90;2.80;;;;;;;24.52;42.79;101974.41;4906610;29;20117;-62
2022/08/28 10:29:56;;;;;;;14.27;2.80;;;;;;;25.97;39.33;101967.84;4907047;29;20040;-63
2022/08/28 10:32:53;;;;;;;13.50;2.67;;;;;;;27.06;38.41;101972.06;4907191;29;20044;-66
2022/08/28 10:35:26;;;;;;;9.10;2.45;;;;;;;28.06;35.47;101964.47;4907879;29;20067;-65
2022/08/28 10:38:08;;;;;;;11.93;2.60;;;;;;;29.92;34.12;101970.56;4907312;29;20076;-66
2022/08/28 10:41:01;;;;;;;11.82;2.50;;;;;;;31.26;31.11;101968.53;4906231;29;20039;-66
2022/08/28 10:43:47;;;;;;;10.27;2.40;;;;;;;32.47;29.36;101964.00;4918435;28;20039;-66
2022/08/28 10:46:19;;;;;;;10.35;2.75;;;;;;;32.36;27.45;101965.75;4961992;28;20110;-66
2022/08/28 10:48:49;;;;;;;11.35;2.70;;;;;;;32.39;27.36;101962.78;4965346;28;20372;-66
2022/08/28 10:51:20;;;;;;;9.52;2.50;;;;;;;33.27;26.77;101962.84;4963965;28;20059;-64
2022/08/28 10:53:58;;;;;;;11.07;2.70;;;;;;;33.52;26.83;101961.88;4964599;28;20114;-67
2022/08/28 10:56:29;;;;;;;12.27;2.70;;;;;;;31.51;27.58;101971.50;4965377;28;20038;-66
2022/08/28 10:58:58;;;;;;;10.65;2.55;;;;;;;30.37;28.96;101966.00;5035576;28;20077;-66
2022/08/28 11:01:37;;;;;;;11.60;2.40;;;;;;;28.96;32.59;101966.00;5045897;28;20357;-67
2022/08/28 11:04:08;;;;;;;10.85;2.40;;;;;;;27.78;33.44;101971.25;5039800;28;20029;-66
2022/08/28 11:06:43;;;;;;;14.23;2.95;;;;;;;27.64;34.55;101976.53;5039949;28;20033;-66
2022/08/28 11:09:24;;;;;;;10.73;2.50;;;;;;;29.26;33.06;101973.44;5040992;28;20061;-69
2022/08/28 11:12:05;;;;;;;11.13;2.47;;;;;;;31.96;29.18;101972.13;5044619;28;20417;-69
2022/08/28 11:14:40;;;;;;;10.85;2.50;;;;;;;31.79;27.86;101967.81;5039215;28;20152;-69
2022/08/28 11:17:29;;;;;;;9.40;2.40;;;;;;;32.84;27.86;101971.47;5040029;28;20030;-70
2022/08/28 11:20:24;;;;;;;13.18;2.50;;;;;;;33.85;26.07;101962.16;5043934;28;20104;-69
2022/08/28 11:23:13;;;;;;;10.90;2.40;;;;;;;35.13;25.01;101965.72;5043448;28;20493;-69
2022/08/28 11:25:50;;;;;;;11.07;2.47;;;;;;;35.81;23.60;101970.19;5040687;28;20391;-67
2022/08/28 11:28:24;;;;;;;12.68;2.70;;;;;;;35.67;22.84;101968.63;5044828;28;20032;-68
2022/08/28 11:31:04;;;;;;;12.40;2.55;;;;;;;36.42;23.34;101967.63;5044574;28;20532;-69